createdAt,value
2017-05-19T05:17:36.141Z,5
2017-05-19T05:18:38.358Z,10
2017-05-19T05:19:40.226Z,10
2017-05-19T05:20:42.342Z,10
2017-05-19T05:21:44.944Z,10
2017-05-19T05:22:47.501Z,10
2017-05-19T05:23:49.781Z,10
2017-05-19T05:24:51.594Z,10
2017-05-19T05:25:53.595Z,10
2017-05-19T05:26:55.849Z,10
2017-05-19T05:27:57.659Z,10
2017-05-19T05:28:59.816Z,10
2017-05-19T05:30:02.045Z,10
2017-05-19T05:31:03.944Z,10
2017-05-19T05:32:05.799Z,10
2017-05-19T05:33:07.815Z,5
2017-05-19T05:34:09.618Z,5
2017-05-19T05:35:12.351Z,5
2017-05-19T05:36:14.533Z,5
2017-05-19T05:37:16.316Z,5
2017-05-19T05:38:21.696Z,5
2017-05-19T05:39:23.546Z,5
2017-05-19T05:40:25.401Z,5
2017-05-19T05:41:27.453Z,5
2017-05-19T05:42:29.375Z,5
2017-05-19T05:43:31.786Z,10
2017-05-19T05:44:34.059Z,10
2017-05-19T05:45:36.409Z,10
2017-05-19T05:46:38.298Z,10
2017-05-19T05:47:40.319Z,15
2017-05-19T05:48:42.285Z,10
2017-05-19T05:49:44.135Z,10
2017-05-19T05:50:46.441Z,5
2017-05-19T05:51:48.249Z,5
2017-05-19T05:52:50.870Z,10
2017-05-19T05:53:52.666Z,10
2017-05-19T05:54:54.939Z,10
2017-05-19T05:55:57.191Z,10
2017-05-19T05:56:59.009Z,5
2017-05-19T05:58:00.868Z,5
2017-05-19T05:59:03.360Z,5
2017-05-19T06:00:05.263Z,5
2017-05-19T06:01:07.137Z,5
2017-05-19T06:02:09.354Z,0
2017-05-19T06:03:11.216Z,0
2017-05-19T06:04:13.600Z,0
2017-05-19T06:05:15.548Z,0
2017-05-19T06:06:17.929Z,0
2017-05-19T06:07:20.354Z,0
2017-05-19T06:08:21.912Z,0
2017-05-19T06:09:24.158Z,5
2017-05-19T06:10:26.495Z,5
2017-05-19T06:11:28.353Z,5
2017-05-19T06:12:30.148Z,5
2017-05-19T06:13:32.223Z,5
2017-05-19T06:14:34.003Z,5
2017-05-19T06:15:35.715Z,5
2017-05-19T06:16:37.620Z,5
2017-05-19T06:17:40.068Z,5
2017-05-19T06:18:41.908Z,5
2017-05-19T06:19:43.747Z,5
2017-05-19T06:20:45.945Z,5
2017-05-19T06:21:47.766Z,10
2017-05-19T06:22:49.542Z,10
2017-05-19T06:23:51.706Z,10
2017-05-19T06:24:55.778Z,10
2017-05-19T06:25:57.934Z,10
2017-05-19T06:26:59.968Z,10
2017-05-19T06:28:02.026Z,15
2017-05-19T06:29:03.785Z,15
2017-05-19T06:30:05.627Z,15
2017-05-19T06:31:07.425Z,10
2017-05-19T06:32:09.242Z,10
2017-05-19T06:33:11.104Z,10
2017-05-19T06:34:12.899Z,10
2017-05-19T06:35:14.878Z,5
2017-05-19T06:36:16.695Z,5
2017-05-19T06:37:18.600Z,5
2017-05-19T06:38:20.429Z,5
2017-05-19T06:39:22.270Z,5
2017-05-19T06:40:24.106Z,5
2017-05-19T06:41:25.849Z,5
2017-05-19T06:42:27.569Z,5
2017-05-19T06:43:29.337Z,0
2017-05-19T06:44:31.234Z,0
2017-05-19T06:45:33.070Z,0
2017-05-19T06:46:34.857Z,0
2017-05-19T06:47:36.618Z,0
2017-05-19T06:48:38.367Z,0
2017-05-19T06:49:40.171Z,0
2017-05-19T06:50:41.948Z,0
2017-05-19T06:51:43.752Z,0
2017-05-19T06:52:45.603Z,0
2017-05-19T06:53:47.493Z,5
2017-05-19T06:54:49.400Z,5
2017-05-19T06:55:51.160Z,5
2017-05-19T06:56:53.240Z,5
2017-05-19T06:57:55.116Z,5
2017-05-19T06:58:57.166Z,5
2017-05-19T06:59:58.962Z,5
2017-05-19T07:01:00.698Z,5
2017-05-19T07:02:02.498Z,5
2017-05-19T07:03:04.483Z,5
2017-05-19T07:04:06.306Z,5
2017-05-19T07:05:08.287Z,5
2017-05-19T07:06:10.047Z,5
2017-05-19T07:07:11.868Z,5
2017-05-19T07:08:13.711Z,5
2017-05-19T07:09:15.767Z,5
2017-05-19T07:10:17.873Z,5
2017-05-19T07:11:19.844Z,5
2017-05-19T07:12:21.970Z,5
2017-05-19T07:13:23.923Z,5
2017-05-19T07:14:25.718Z,5
2017-05-19T07:15:27.511Z,5
2017-05-19T07:16:29.374Z,5
2017-05-19T07:17:31.192Z,5
2017-05-19T07:18:32.988Z,5
2017-05-19T07:19:35.102Z,5
2017-05-19T07:20:36.964Z,5
2017-05-19T07:21:38.996Z,10
2017-05-19T07:22:41.012Z,10
2017-05-19T07:23:42.905Z,10
2017-05-19T07:24:44.799Z,15
2017-05-19T07:25:46.591Z,15
2017-05-19T07:26:48.369Z,15
2017-05-19T07:27:50.248Z,15
2017-05-19T07:28:52.209Z,10
2017-05-19T07:29:54.010Z,10
2017-05-19T07:30:55.861Z,10
2017-05-19T07:31:57.621Z,10
2017-05-19T07:32:59.644Z,5
2017-05-19T07:34:01.376Z,5
2017-05-19T07:35:03.497Z,5
2017-05-19T07:36:05.304Z,5
2017-05-19T07:37:07.112Z,5
2017-05-19T07:38:09.047Z,10
2017-05-19T07:39:10.944Z,5
2017-05-19T07:40:12.959Z,5
2017-05-19T07:41:14.821Z,5
2017-05-19T07:42:16.668Z,5
2017-05-19T07:43:18.827Z,10
2017-05-19T07:44:20.673Z,10
2017-05-19T07:45:22.564Z,10
2017-05-19T07:46:24.362Z,10
2017-05-19T07:47:26.102Z,10
2017-05-19T07:48:28.021Z,10
2017-05-19T07:49:29.920Z,10
2017-05-19T07:50:31.861Z,10
2017-05-19T07:51:33.772Z,10
2017-05-19T07:52:35.745Z,15
2017-05-19T07:53:37.544Z,15
2017-05-19T07:54:39.446Z,15
2017-05-19T07:55:41.217Z,15
2017-05-19T07:56:43.295Z,15
2017-05-19T07:57:45.158Z,15
2017-05-19T07:58:47.152Z,15
2017-05-19T07:59:49.102Z,15
2017-05-19T08:00:50.965Z,15
2017-05-19T08:01:52.856Z,15
2017-05-19T08:02:54.753Z,15
2017-05-19T08:03:56.633Z,15
2017-05-19T08:04:58.576Z,15
2017-05-19T08:06:01.580Z,15
2017-05-19T08:07:03.314Z,20
2017-05-19T08:08:05.210Z,20
2017-05-19T08:09:07.136Z,20
2017-05-19T08:10:09.029Z,20
2017-05-19T08:11:10.862Z,20
2017-05-19T08:12:12.816Z,20
2017-05-19T08:13:14.795Z,20
2017-05-19T08:14:16.502Z,20
2017-05-19T08:15:18.329Z,20
2017-05-19T08:16:20.370Z,20
2017-05-19T08:17:22.300Z,20
2017-05-19T08:18:24.102Z,20
2017-05-19T08:19:25.904Z,20
2017-05-19T08:20:27.760Z,20
2017-05-19T08:21:29.644Z,20
2017-05-19T08:22:31.463Z,20
2017-05-19T08:23:33.412Z,20
2017-05-19T08:24:35.352Z,20
2017-05-19T08:25:37.297Z,20
2017-05-19T08:26:39.190Z,20
2017-05-19T08:27:41.079Z,20
2017-05-19T08:28:43.126Z,25
2017-05-19T08:29:45.069Z,25
2017-05-19T08:30:47.115Z,25
2017-05-19T08:31:49.417Z,30
2017-05-19T08:32:51.527Z,25
2017-05-19T08:33:53.481Z,25
2017-05-19T08:34:55.338Z,30
2017-05-19T08:35:57.181Z,30
2017-05-19T08:36:58.974Z,30
2017-05-19T08:38:00.803Z,30
2017-05-19T08:39:02.657Z,30
2017-05-19T08:40:04.487Z,35
2017-05-19T08:41:06.257Z,35
2017-05-19T08:42:08.137Z,35
2017-05-19T08:43:09.925Z,30
2017-05-19T08:44:11.944Z,30
2017-05-19T08:45:14.114Z,25
2017-05-19T08:46:16.104Z,25
2017-05-19T08:47:18.090Z,25
2017-05-19T08:48:20.175Z,25
2017-05-19T08:49:22.267Z,25
2017-05-19T08:50:24.109Z,25
2017-05-19T08:51:25.934Z,25
2017-05-19T08:52:27.857Z,25
2017-05-19T08:53:29.618Z,25
2017-05-19T08:54:31.687Z,25
2017-05-19T08:55:33.586Z,25
2017-05-19T08:56:35.427Z,25
2017-05-19T08:57:37.262Z,25
2017-05-19T08:58:39.225Z,25
2017-05-19T08:59:40.994Z,25
2017-05-19T09:00:43.154Z,30
2017-05-19T09:01:45.117Z,30
2017-05-19T09:02:47.344Z,30
2017-05-19T09:03:49.198Z,30
2017-05-19T09:04:51.117Z,30
2017-05-19T09:05:52.943Z,30
2017-05-19T09:06:54.767Z,30
2017-05-19T09:07:56.529Z,30
2017-05-19T09:08:58.807Z,30
2017-05-19T09:10:00.631Z,35
2017-05-19T09:11:02.419Z,35
2017-05-19T09:12:04.157Z,35
2017-05-19T09:13:05.965Z,35
2017-05-19T09:14:07.987Z,35
2017-05-19T09:15:09.934Z,35
2017-05-19T09:16:11.705Z,35
2017-05-19T09:17:13.539Z,30
2017-05-19T09:18:15.457Z,35
2017-05-19T09:19:17.301Z,35
2017-05-19T09:20:19.158Z,35
2017-05-19T09:21:20.947Z,35
2017-05-19T09:22:22.733Z,35
2017-05-19T09:23:24.809Z,35
2017-05-19T09:24:26.671Z,35
2017-05-19T09:25:28.521Z,35
2017-05-19T09:26:30.504Z,35
2017-05-19T09:27:32.318Z,35
2017-05-19T09:28:34.058Z,35
2017-05-19T09:29:35.853Z,35
2017-05-19T09:30:37.748Z,35
2017-05-19T09:31:39.849Z,40
2017-05-19T09:32:41.653Z,40
2017-05-19T09:33:43.529Z,40
2017-05-19T09:34:45.758Z,40
2017-05-19T09:35:47.524Z,40
2017-05-19T09:36:49.272Z,35
2017-05-19T09:37:51.182Z,35
2017-05-19T09:38:52.978Z,35
2017-05-19T09:39:54.861Z,35
2017-05-19T09:40:56.611Z,35
2017-05-19T09:41:58.587Z,35
2017-05-19T09:43:00.269Z,35
2017-05-19T09:44:02.140Z,35
2017-05-19T09:45:03.986Z,40
2017-05-19T09:46:05.901Z,40
2017-05-19T09:47:07.944Z,35
2017-05-19T09:48:09.799Z,35
2017-05-19T09:49:11.658Z,35
2017-05-19T09:50:13.507Z,35
2017-05-19T09:51:15.480Z,35
2017-05-19T09:52:17.438Z,35
2017-05-19T09:53:19.327Z,35
2017-05-19T09:54:21.140Z,35
2017-05-19T09:55:22.980Z,35
2017-05-19T09:56:24.786Z,35
2017-05-19T09:57:26.550Z,35
2017-05-19T09:58:28.406Z,35
2017-05-19T09:59:30.333Z,35
2017-05-19T10:00:32.406Z,35
2017-05-19T10:01:34.144Z,35
2017-05-19T10:02:36.225Z,35
2017-05-19T10:03:38.039Z,35
2017-05-19T10:04:39.828Z,35
2017-05-19T10:05:41.912Z,35
2017-05-19T10:06:43.833Z,35
2017-05-19T10:07:45.705Z,35
2017-05-19T10:08:47.433Z,35
2017-05-19T10:09:49.308Z,35
2017-05-19T10:10:51.147Z,35
2017-05-19T10:11:53.072Z,35
2017-05-19T10:12:54.850Z,35
2017-05-19T10:13:56.583Z,35
2017-05-19T10:14:58.741Z,35
2017-05-19T10:16:00.912Z,35
2017-05-19T10:17:02.865Z,35
2017-05-19T10:18:05.029Z,35
2017-05-19T10:19:06.825Z,35
2017-05-19T10:20:08.970Z,35
2017-05-19T10:21:11.015Z,35
2017-05-19T10:22:12.841Z,35
2017-05-19T10:23:14.622Z,35
2017-05-19T10:24:16.717Z,35
2017-05-19T10:25:18.628Z,35
2017-05-19T10:26:20.577Z,35
2017-05-19T10:27:22.670Z,35
2017-05-19T10:28:24.433Z,40
2017-05-19T10:29:26.294Z,40
2017-05-19T10:30:28.137Z,40
2017-05-19T10:31:29.916Z,40
2017-05-19T10:32:31.958Z,40
2017-05-19T10:33:33.748Z,40
2017-05-19T10:34:35.610Z,35
2017-05-19T10:35:37.498Z,35
2017-05-19T10:36:39.654Z,35
2017-05-19T10:37:41.471Z,35
2017-05-19T10:38:43.318Z,35
2017-05-19T10:39:45.146Z,35
2017-05-19T10:40:46.971Z,35
2017-05-19T10:41:48.842Z,35
2017-05-19T10:42:50.911Z,35
2017-05-19T10:43:52.622Z,35
2017-05-19T10:44:54.506Z,35
2017-05-19T10:45:56.406Z,35
2017-05-19T10:46:58.427Z,35
2017-05-19T10:48:00.526Z,35
2017-05-19T10:49:02.446Z,35
2017-05-19T10:50:04.186Z,35
2017-05-19T10:51:06.275Z,35
2017-05-19T10:52:07.968Z,35
2017-05-19T10:53:09.869Z,35
2017-05-19T10:54:11.762Z,40
2017-05-19T10:55:13.548Z,40
2017-05-19T10:56:15.361Z,40
2017-05-19T10:57:17.253Z,45
2017-05-19T10:58:19.067Z,45
2017-05-19T10:59:21.359Z,45
2017-05-19T11:00:23.236Z,50
2017-05-19T11:01:25.144Z,50
2017-05-19T11:02:27.005Z,50
2017-05-19T11:03:28.871Z,50
2017-05-19T11:04:30.711Z,50
2017-05-19T11:05:32.546Z,50
2017-05-19T11:06:34.382Z,45
2017-05-19T11:07:36.494Z,45
2017-05-19T11:08:38.753Z,40
2017-05-19T11:09:40.758Z,40
2017-05-19T11:10:42.577Z,40
2017-05-19T11:11:44.538Z,35
2017-05-19T11:12:46.429Z,35
2017-05-19T11:13:48.169Z,35
2017-05-19T11:14:50.410Z,35
2017-05-19T11:15:52.520Z,35
2017-05-19T11:16:54.320Z,35
2017-05-19T11:17:56.176Z,35
2017-05-19T11:18:58.014Z,35
2017-05-19T11:19:59.737Z,35
2017-05-19T11:21:01.822Z,30
2017-05-19T11:22:03.675Z,30
2017-05-19T11:23:05.437Z,30
2017-05-19T11:24:07.519Z,35
2017-05-19T11:25:09.291Z,35
2017-05-19T11:26:11.471Z,30
2017-05-19T11:27:13.250Z,30
2017-05-19T11:28:15.073Z,30
2017-05-19T11:29:16.927Z,35
2017-05-19T11:30:19.110Z,35
2017-05-19T11:31:20.879Z,35
2017-05-19T11:32:22.749Z,35
2017-05-19T11:33:24.861Z,35
2017-05-19T11:34:26.667Z,35
2017-05-19T11:35:28.536Z,40
2017-05-19T11:36:30.438Z,45
2017-05-19T11:37:32.492Z,45
2017-05-19T11:38:34.297Z,45
2017-05-19T11:39:36.103Z,45
2017-05-19T11:40:38.214Z,45
2017-05-19T11:41:39.954Z,45
2017-05-19T11:42:42.052Z,40
2017-05-19T11:43:43.912Z,35
2017-05-19T11:44:45.857Z,35
2017-05-19T11:45:47.629Z,35
2017-05-19T11:46:49.394Z,35
2017-05-19T11:47:51.210Z,35
2017-05-19T11:48:53.049Z,35
2017-05-19T11:49:55.030Z,35
2017-05-19T11:50:56.746Z,35
2017-05-19T11:51:58.679Z,35
2017-05-19T11:53:00.706Z,40
2017-05-19T11:54:02.580Z,35
2017-05-19T11:55:04.667Z,35
2017-05-19T11:56:06.492Z,35
2017-05-19T11:57:08.336Z,40
2017-05-19T11:58:10.151Z,40
2017-05-19T11:59:11.973Z,35
2017-05-19T12:00:13.884Z,35
2017-05-19T12:01:15.631Z,35
2017-05-19T12:02:17.412Z,35
2017-05-19T12:03:19.602Z,35
2017-05-19T12:04:21.437Z,35
2017-05-19T12:05:23.285Z,35
2017-05-19T12:06:25.376Z,35
2017-05-19T12:07:27.620Z,35
2017-05-19T12:08:29.343Z,30
2017-05-19T12:09:32.054Z,30
2017-05-19T12:10:34.230Z,30
2017-05-19T12:11:36.112Z,25
2017-05-19T12:12:37.967Z,20
2017-05-19T12:13:39.825Z,20
2017-05-19T12:14:42.059Z,20
2017-05-19T12:15:43.873Z,20
2017-05-19T12:16:45.690Z,20
2017-05-19T12:17:47.676Z,20
2017-05-19T12:18:49.476Z,20
2017-05-19T12:19:51.306Z,20
2017-05-19T12:20:53.321Z,20
2017-05-19T12:21:55.063Z,20
2017-05-19T12:22:57.370Z,20
2017-05-19T12:23:59.336Z,20
2017-05-19T12:25:01.283Z,20
2017-05-19T12:26:03.107Z,20
2017-05-19T12:27:04.912Z,20
2017-05-19T12:28:06.721Z,20
2017-05-19T12:29:08.806Z,20
2017-05-19T12:30:11.036Z,20
2017-05-19T12:31:12.834Z,15
2017-05-19T12:32:14.708Z,15
2017-05-19T12:33:16.535Z,15
2017-05-19T12:34:18.516Z,15
2017-05-19T12:35:20.334Z,15
2017-05-19T12:36:22.135Z,20
2017-05-19T12:37:24.007Z,20
2017-05-19T12:38:25.714Z,20
2017-05-19T12:39:27.521Z,25
2017-05-19T12:40:29.492Z,25
2017-05-19T12:41:31.644Z,25
2017-05-19T12:42:33.731Z,25
2017-05-19T12:43:35.541Z,30
2017-05-19T12:44:37.658Z,25
2017-05-19T12:45:39.532Z,25
2017-05-19T12:46:41.347Z,25
2017-05-19T12:47:43.647Z,20
2017-05-19T12:48:45.975Z,20
2017-05-19T12:49:47.744Z,20
2017-05-19T12:50:49.938Z,20
2017-05-19T12:51:51.651Z,25
2017-05-19T12:52:53.503Z,25
2017-05-19T12:53:55.375Z,25
2017-05-19T12:54:57.180Z,20
2017-05-19T12:55:58.981Z,20
2017-05-19T12:57:01.287Z,20
2017-05-19T12:58:03.390Z,15
2017-05-19T12:59:05.230Z,15
2017-05-19T13:00:07.470Z,10
2017-05-19T13:01:09.321Z,10
2017-05-19T13:02:11.682Z,10
2017-05-19T13:03:13.415Z,10
2017-05-19T13:04:15.736Z,10
2017-05-19T13:05:17.563Z,10
2017-05-19T13:06:19.627Z,10
2017-05-19T13:07:21.679Z,10
2017-05-19T13:08:23.460Z,5
2017-05-19T13:09:25.329Z,5
2017-05-19T13:10:27.421Z,5
2017-05-19T13:11:29.220Z,5
2017-05-19T13:12:30.977Z,5
2017-05-19T13:13:32.776Z,5
2017-05-19T13:14:34.683Z,5
2017-05-19T13:15:36.797Z,5
2017-05-19T13:16:38.582Z,5
2017-05-19T13:17:40.488Z,10
2017-05-19T13:18:42.375Z,10
2017-05-19T13:19:44.159Z,10
2017-05-19T13:20:46.386Z,15
2017-05-19T13:21:48.148Z,15
2017-05-19T13:22:49.979Z,15
2017-05-19T13:23:51.879Z,15
2017-05-19T13:24:53.681Z,20
2017-05-19T13:25:55.455Z,20
2017-05-19T13:26:57.261Z,20
2017-05-19T13:27:59.101Z,15
2017-05-19T13:29:01.059Z,15
2017-05-19T13:30:02.853Z,10
2017-05-19T13:31:04.927Z,10
2017-05-19T13:32:07.087Z,10
2017-05-19T13:33:08.905Z,10
2017-05-19T13:34:10.725Z,10
2017-05-19T13:35:12.555Z,10
2017-05-19T13:36:14.424Z,10
2017-05-19T13:37:16.220Z,10
2017-05-19T13:38:18.128Z,15
2017-05-19T13:39:19.868Z,15
2017-05-19T13:40:21.725Z,15
2017-05-19T13:41:23.639Z,20
2017-05-19T13:42:25.499Z,20
2017-05-19T13:43:27.493Z,20
2017-05-19T13:44:29.776Z,20
2017-05-19T13:45:31.658Z,15
2017-05-19T13:46:33.423Z,15
2017-05-19T13:47:35.671Z,10
2017-05-19T13:48:37.462Z,10
2017-05-19T13:49:39.292Z,10
2017-05-19T13:50:41.483Z,10
2017-05-19T13:51:43.774Z,10
2017-05-19T13:52:45.497Z,10
2017-05-19T13:53:47.343Z,10
2017-05-19T13:54:49.175Z,15
2017-05-19T13:55:50.957Z,15
2017-05-19T13:56:52.747Z,20
2017-05-19T13:57:54.607Z,20
2017-05-19T13:58:56.448Z,20
2017-05-19T13:59:58.692Z,20
2017-05-19T14:01:00.528Z,25
2017-05-19T14:02:02.324Z,25
2017-05-19T14:03:04.160Z,30
2017-05-19T14:04:05.994Z,30
2017-05-19T14:05:07.859Z,30
2017-05-19T14:06:09.834Z,30
2017-05-19T14:07:11.625Z,30
2017-05-19T14:08:13.506Z,30
2017-05-19T14:09:15.620Z,30
2017-05-19T14:10:17.569Z,30
2017-05-19T14:11:19.376Z,30
2017-05-19T14:12:21.251Z,30
2017-05-19T14:13:23.077Z,30
2017-05-19T14:14:24.910Z,30
2017-05-19T14:15:26.708Z,25
2017-05-19T14:16:28.594Z,25
2017-05-19T14:17:30.446Z,25
2017-05-19T14:18:32.236Z,25
2017-05-19T14:19:34.080Z,25
2017-05-19T14:20:36.264Z,25
2017-05-19T14:21:38.161Z,25
2017-05-19T14:22:39.815Z,25
2017-05-19T14:23:41.896Z,25
2017-05-19T14:24:43.966Z,25
2017-05-19T14:25:45.739Z,20
2017-05-19T14:26:47.542Z,20
2017-05-19T14:27:49.382Z,20
2017-05-19T14:28:51.248Z,20
2017-05-19T14:29:53.444Z,20
2017-05-19T14:30:55.531Z,20
2017-05-19T14:31:57.357Z,20
2017-05-19T14:32:59.111Z,20
2017-05-19T14:34:00.995Z,20
2017-05-19T14:35:04.844Z,20
2017-05-19T14:36:06.948Z,20
2017-05-19T14:37:09.186Z,20
2017-05-19T14:38:10.941Z,20
2017-05-19T14:39:12.740Z,20
2017-05-19T14:40:14.517Z,20
2017-05-19T14:41:16.295Z,20
2017-05-19T14:42:18.159Z,20
2017-05-19T14:43:20.305Z,20
2017-05-19T14:44:22.119Z,20
2017-05-19T14:45:24.435Z,20
2017-05-19T14:46:26.248Z,20
2017-05-19T14:47:28.505Z,20
2017-05-19T14:48:30.431Z,20
2017-05-19T14:49:32.210Z,15
2017-05-19T14:50:34.049Z,15
2017-05-19T14:51:35.730Z,15
2017-05-19T14:52:37.537Z,10
2017-05-19T14:53:39.681Z,10
2017-05-19T14:54:41.735Z,10
2017-05-19T14:55:43.908Z,10
2017-05-19T14:56:45.718Z,10
2017-05-19T14:57:47.622Z,10
2017-05-19T14:58:49.847Z,10
2017-05-19T14:59:51.694Z,10
2017-05-19T15:00:53.547Z,10
2017-05-19T15:01:55.765Z,15
2017-05-19T15:02:57.665Z,15
2017-05-19T15:03:59.715Z,15
2017-05-19T15:05:01.830Z,15
2017-05-19T15:06:03.789Z,15
2017-05-19T15:07:05.599Z,15
2017-05-19T15:08:07.569Z,15
2017-05-19T15:09:10.017Z,15
2017-05-19T15:10:11.918Z,20
2017-05-19T15:11:13.718Z,20
2017-05-19T15:12:15.568Z,20
2017-05-19T15:13:17.422Z,20
2017-05-19T15:14:19.310Z,15
2017-05-19T15:15:21.118Z,15
2017-05-19T15:16:22.913Z,15
2017-05-19T15:17:24.771Z,15
2017-05-19T15:18:26.614Z,10
2017-05-19T15:19:28.746Z,10
2017-05-19T15:20:30.564Z,10
2017-05-19T15:21:33.076Z,5
2017-05-19T15:22:34.878Z,5
2017-05-19T15:23:36.839Z,5
2017-05-19T15:24:38.635Z,5
2017-05-19T15:25:40.472Z,5
2017-05-19T15:26:42.304Z,5
2017-05-19T15:27:44.252Z,5
2017-05-19T15:28:46.129Z,5
2017-05-19T15:29:47.970Z,5
2017-05-19T15:30:50.062Z,5
2017-05-19T15:31:52.030Z,5
2017-05-19T15:32:53.867Z,5
2017-05-19T15:33:55.751Z,5
2017-05-19T15:34:57.522Z,5
2017-05-19T15:35:59.349Z,5
2017-05-19T15:37:01.182Z,5
2017-05-19T15:38:02.945Z,10
2017-05-19T15:39:04.753Z,10
2017-05-19T15:40:06.627Z,10
2017-05-19T15:41:08.485Z,10
2017-05-19T15:42:10.276Z,10
2017-05-19T15:43:12.184Z,10
2017-05-19T15:44:14.061Z,10
2017-05-19T15:45:16.329Z,10
2017-05-19T15:46:18.154Z,10
2017-05-19T15:47:20.377Z,10
2017-05-19T15:48:22.435Z,5
2017-05-19T15:49:24.276Z,5
2017-05-19T15:50:26.104Z,5
2017-05-19T15:51:27.881Z,5
2017-05-19T15:52:29.723Z,5
2017-05-19T15:53:31.550Z,5
2017-05-19T15:54:33.724Z,10
2017-05-19T15:55:35.592Z,10
2017-05-19T15:56:37.390Z,15
2017-05-19T15:57:39.198Z,20
2017-05-19T15:58:40.997Z,20
2017-05-19T15:59:42.776Z,20
2017-05-19T16:00:44.663Z,20
2017-05-19T16:01:46.963Z,20
2017-05-19T16:02:48.788Z,15
2017-05-19T16:03:50.630Z,15
2017-05-19T16:04:52.483Z,15
2017-05-19T16:05:54.629Z,20
2017-05-19T16:06:56.368Z,20
2017-05-19T16:07:58.514Z,20
2017-05-19T16:09:00.666Z,20
2017-05-19T16:10:02.503Z,20
2017-05-19T16:11:04.666Z,20
2017-05-19T16:12:06.779Z,20
2017-05-19T16:13:08.629Z,20
2017-05-19T16:14:10.430Z,20
2017-05-19T16:15:12.288Z,15
2017-05-19T16:16:14.166Z,15
2017-05-19T16:17:16.061Z,15
2017-05-19T16:18:17.915Z,15
2017-05-19T16:19:19.998Z,15
2017-05-19T16:20:22.019Z,10
2017-05-19T16:21:24.066Z,10
2017-05-19T16:22:25.845Z,10
2017-05-19T16:23:27.625Z,10
2017-05-19T16:24:29.452Z,10
2017-05-19T16:25:31.404Z,10
2017-05-19T16:26:33.264Z,10
2017-05-19T16:27:35.420Z,10
2017-05-19T16:28:37.203Z,10
2017-05-19T16:29:39.105Z,10
2017-05-19T16:30:40.921Z,10
2017-05-19T16:31:42.878Z,10
2017-05-19T16:32:44.708Z,10
2017-05-19T16:33:46.586Z,10
2017-05-19T16:34:48.404Z,10
2017-05-19T16:35:50.521Z,10
2017-05-19T16:36:52.292Z,10
2017-05-19T16:37:54.195Z,10
2017-05-19T16:38:56.393Z,10
2017-05-19T16:39:58.258Z,10
2017-05-19T16:41:00.310Z,10
2017-05-19T16:42:02.131Z,10
2017-05-19T16:43:03.932Z,10
2017-05-19T16:44:05.827Z,10
2017-05-19T16:45:07.662Z,10
2017-05-19T16:46:09.586Z,10
2017-05-19T16:47:11.529Z,10
2017-05-19T16:48:13.648Z,10
2017-05-19T16:49:15.968Z,10
2017-05-19T16:50:17.689Z,10
2017-05-19T16:51:19.455Z,10
2017-05-19T16:52:21.336Z,10
2017-05-19T16:53:23.049Z,10
2017-05-19T16:54:24.834Z,5
2017-05-19T16:55:26.688Z,5
2017-05-19T16:56:28.621Z,5
2017-05-19T16:57:30.412Z,5
2017-05-19T16:58:32.512Z,5
2017-05-19T16:59:34.283Z,5
2017-05-19T17:00:36.423Z,5
2017-05-19T17:01:38.441Z,5
2017-05-19T17:02:40.250Z,5
2017-05-19T17:03:42.032Z,5
2017-05-19T17:04:43.692Z,5
2017-05-19T17:05:45.536Z,5
2017-05-19T17:06:47.401Z,10
2017-05-19T17:07:49.490Z,5
2017-05-19T17:08:51.198Z,5
2017-05-19T17:09:53.016Z,5
2017-05-19T17:10:54.866Z,10
2017-05-19T17:11:56.982Z,10
2017-05-19T17:12:58.939Z,10
2017-05-19T17:14:00.704Z,10
2017-05-19T17:15:02.515Z,10
2017-05-19T17:16:04.489Z,10
2017-05-19T17:17:06.693Z,10
2017-05-19T17:18:08.433Z,10
2017-05-19T17:19:10.543Z,10
2017-05-19T17:20:12.360Z,10
2017-05-19T17:21:14.183Z,10
2017-05-19T17:22:16.356Z,10
2017-05-19T17:23:18.107Z,10
2017-05-19T17:24:19.894Z,10
2017-05-19T17:25:21.725Z,10
2017-05-19T17:26:23.566Z,10
2017-05-19T17:27:25.468Z,5
2017-05-19T17:28:27.266Z,5
2017-05-19T17:29:29.073Z,5
2017-05-19T17:30:30.888Z,5
2017-05-19T17:31:32.937Z,5
2017-05-19T17:32:34.719Z,5
2017-05-19T17:33:36.549Z,5
2017-05-19T17:34:38.313Z,5
2017-05-19T17:35:40.133Z,5
2017-05-19T17:36:42.034Z,5
2017-05-19T17:37:43.891Z,5
2017-05-19T17:38:45.813Z,5
2017-05-19T17:39:47.756Z,5
2017-05-19T17:40:49.706Z,5
2017-05-19T17:41:51.725Z,5
2017-05-19T17:42:53.576Z,5
2017-05-19T17:43:55.831Z,5
2017-05-19T17:44:57.657Z,5
2017-05-19T17:45:59.467Z,5
2017-05-19T17:47:01.245Z,5
2017-05-19T17:48:03.349Z,5
2017-05-19T17:49:05.347Z,5
2017-05-19T17:50:07.131Z,5
2017-05-19T17:51:08.936Z,5
2017-05-19T17:52:11.110Z,5
2017-05-19T17:53:12.825Z,5
2017-05-19T17:54:14.706Z,5
2017-05-19T17:55:16.530Z,5
2017-05-19T17:56:18.338Z,5
2017-05-19T17:57:20.171Z,5
2017-05-19T17:58:21.941Z,5
2017-05-19T17:59:23.765Z,5
2017-05-19T18:00:25.528Z,5
2017-05-19T18:01:27.263Z,5
2017-05-19T18:02:29.298Z,5
2017-05-19T18:03:30.933Z,5
2017-05-19T18:04:33.257Z,5
2017-05-19T18:05:35.356Z,5
2017-05-19T18:06:37.446Z,5
2017-05-19T18:07:39.274Z,5
2017-05-19T18:08:41.107Z,5
2017-05-19T18:09:43.086Z,5
2017-05-19T18:10:44.946Z,5
2017-05-19T18:11:46.693Z,5
2017-05-19T18:12:48.522Z,5
2017-05-19T18:13:50.767Z,5
2017-05-19T18:14:52.499Z,5
2017-05-19T18:15:54.280Z,5
2017-05-19T18:16:56.030Z,5
2017-05-19T18:17:57.877Z,5
2017-05-19T18:18:59.668Z,5
2017-05-19T18:20:01.447Z,5
2017-05-19T18:21:03.432Z,5
2017-05-19T18:22:05.364Z,5
2017-05-19T18:23:07.190Z,5
2017-05-19T18:24:08.922Z,5
2017-05-19T18:25:10.791Z,5
2017-05-19T18:26:12.747Z,5
2017-05-19T18:27:14.520Z,0
2017-05-19T18:28:16.301Z,0
2017-05-19T18:29:18.384Z,0
2017-05-19T18:30:20.496Z,0
2017-05-19T18:31:22.547Z,0
2017-05-19T18:32:24.323Z,0
2017-05-19T18:33:26.613Z,0
2017-05-19T18:34:28.697Z,0
2017-05-19T18:35:30.861Z,0
2017-05-19T18:36:32.744Z,0
2017-05-19T18:37:34.827Z,0
2017-05-19T18:38:36.727Z,0
2017-05-19T18:39:38.969Z,0
2017-05-19T18:40:40.729Z,0
2017-05-19T18:41:42.548Z,0
2017-05-19T18:42:44.336Z,0
2017-05-19T18:43:46.477Z,0
2017-05-19T18:44:48.321Z,0
2017-05-19T18:45:50.084Z,0
2017-05-19T18:46:51.975Z,0
2017-05-19T18:47:54.084Z,0
2017-05-19T18:48:55.904Z,0
2017-05-19T18:49:57.789Z,0
2017-05-19T18:50:59.676Z,0
2017-05-19T18:52:01.671Z,0
2017-05-19T18:53:03.530Z,0
2017-05-19T18:54:05.327Z,0
2017-05-19T18:55:07.154Z,0
2017-05-19T18:56:09.041Z,0
2017-05-19T18:57:10.962Z,0
2017-05-19T18:58:12.823Z,0
2017-05-19T18:59:14.686Z,0
2017-05-19T19:00:16.567Z,0
2017-05-19T19:01:18.364Z,0
2017-05-19T19:02:20.287Z,0
2017-05-19T19:03:22.496Z,0
2017-05-19T19:04:24.881Z,0
2017-05-19T19:05:27.196Z,0
2017-05-19T19:06:29.334Z,0
2017-05-19T19:07:31.588Z,0
2017-05-19T19:08:33.374Z,0
2017-05-19T19:09:35.220Z,0
2017-05-19T19:10:37.388Z,0
2017-05-19T19:11:39.557Z,0
2017-05-19T19:12:41.450Z,0
2017-05-19T19:13:43.135Z,0
2017-05-19T19:14:44.957Z,0
2017-05-19T19:15:46.831Z,0
2017-05-19T19:16:48.765Z,0
2017-05-19T19:17:50.638Z,0
2017-05-19T19:18:52.397Z,0
2017-05-19T19:19:54.256Z,0
2017-05-19T19:20:56.279Z,0
2017-05-19T19:21:58.156Z,0
2017-05-19T19:23:00.050Z,0
2017-05-19T19:24:02.052Z,0
2017-05-19T19:25:03.848Z,0
2017-05-19T19:26:05.805Z,0
2017-05-19T19:27:07.648Z,0
2017-05-19T19:28:09.502Z,0
2017-05-19T19:29:11.373Z,0
2017-05-19T19:30:13.527Z,0
2017-05-19T19:31:15.435Z,0
2017-05-19T19:32:17.440Z,0
2017-05-19T19:33:19.280Z,0
2017-05-19T19:34:21.128Z,0
2017-05-19T19:35:22.903Z,0
2017-05-19T19:36:24.748Z,0
2017-05-19T19:37:26.503Z,0
2017-05-19T19:38:28.366Z,0
2017-05-19T19:39:30.460Z,0
2017-05-19T19:40:32.155Z,0
2017-05-19T19:41:34.006Z,0
2017-05-19T19:42:36.045Z,0
2017-05-19T19:43:38.152Z,0
2017-05-19T19:44:39.963Z,0
2017-05-19T19:45:42.118Z,0
2017-05-19T19:46:43.859Z,0
2017-05-19T19:47:45.933Z,0
2017-05-19T19:48:47.754Z,0
2017-05-19T19:49:49.509Z,0
2017-05-19T19:50:51.670Z,0
2017-05-19T19:51:53.912Z,0
2017-05-19T19:52:55.746Z,0
2017-05-19T19:53:57.770Z,0
2017-05-19T19:54:59.527Z,0
2017-05-19T19:56:01.339Z,0
2017-05-19T19:57:03.555Z,0
2017-05-19T19:58:05.400Z,0
2017-05-19T19:59:07.249Z,0
2017-05-19T20:00:09.006Z,0
2017-05-19T20:01:10.901Z,0
2017-05-19T20:02:12.779Z,0
2017-05-19T20:03:14.951Z,0
2017-05-19T20:04:16.823Z,0
2017-05-19T20:05:18.708Z,0
2017-05-19T20:06:20.510Z,0
2017-05-19T20:07:22.698Z,0
2017-05-19T20:08:24.916Z,0
2017-05-19T20:09:26.727Z,0
2017-05-19T20:10:28.534Z,0
2017-05-19T20:11:30.296Z,0